createdAt,value
2022-11-29T00:01:06.368Z,75.75
2022-11-29T00:03:34.486Z,75.32
2022-11-29T00:06:13.269Z,76.10
2022-11-29T00:08:41.375Z,76.19
2022-11-29T00:11:13.801Z,75.81
2022-11-29T00:13:40.454Z,75.95
2022-11-29T00:16:12.159Z,75.64
2022-11-29T00:18:38.966Z,75.77
2022-11-29T00:21:07.005Z,75.51
2022-11-29T00:23:33.849Z,74.73
2022-11-29T00:26:07.943Z,75.37
2022-11-29T00:28:36.263Z,75.63
2022-11-29T00:31:15.228Z,75.83
2022-11-29T00:33:41.907Z,75.29
2022-11-29T00:36:08.498Z,75.65
2022-11-29T00:38:35.203Z,76.26
2022-11-29T00:41:03.077Z,75.92
2022-11-29T00:43:29.684Z,75.95
2022-11-29T00:45:56.839Z,75.53
2022-11-29T00:48:23.444Z,74.74
2022-11-29T00:50:50.101Z,74.98
2022-11-29T00:53:16.758Z,75.13
2022-11-29T00:55:51.454Z,74.49
2022-11-29T00:58:19.054Z,74.30
2022-11-29T01:00:45.755Z,74.67
2022-11-29T01:03:12.351Z,74.93
2022-11-29T01:05:38.928Z,75.09
2022-11-29T01:08:06.052Z,74.47
2022-11-29T01:10:32.975Z,75.14
2022-11-29T01:12:59.613Z,75.01
2022-11-29T01:15:26.452Z,74.73
2022-11-29T01:17:53.682Z,75.00
2022-11-29T01:20:20.435Z,74.82
2022-11-29T01:22:47.118Z,75.46
2022-11-29T01:25:14.283Z,75.05
2022-11-29T01:27:41.632Z,74.19
2022-11-29T01:30:09.903Z,74.92
2022-11-29T01:32:37.314Z,74.41
2022-11-29T01:35:05.284Z,74.16
2022-11-29T01:37:32.034Z,75.00
2022-11-29T01:39:58.622Z,74.09
2022-11-29T01:42:25.248Z,74.54
2022-11-29T01:45:07.863Z,74.55
2022-11-29T01:47:38.950Z,74.27
2022-11-29T01:50:08.743Z,74.24
2022-11-29T01:52:35.611Z,74.47
2022-11-29T01:55:05.779Z,74.97
2022-11-29T01:57:33.957Z,74.42
2022-11-29T02:00:09.877Z,74.21
2022-11-29T02:03:10.242Z,73.80
2022-11-29T02:05:47.344Z,72.88
2022-11-29T02:08:18.161Z,73.22
2022-11-29T02:11:03.790Z,73.09
2022-11-29T02:13:51.614Z,73.16
2022-11-29T02:16:47.709Z,73.04
2022-11-29T02:19:17.250Z,73.04
2022-11-29T02:21:58.076Z,73.89
2022-11-29T02:24:51.120Z,73.47
2022-11-29T02:27:20.680Z,74.24
2022-11-29T02:30:02.408Z,73.96
2022-11-29T02:32:38.057Z,74.70
2022-11-29T02:35:23.471Z,74.24
2022-11-29T02:38:19.805Z,73.93
2022-11-29T02:41:13.848Z,74.57
2022-11-29T02:43:49.753Z,74.25
2022-11-29T02:46:19.376Z,74.33
2022-11-29T02:49:04.697Z,73.35
2022-11-29T02:51:42.752Z,73.00
2022-11-29T02:54:26.483Z,72.28
2022-11-29T02:57:18.007Z,72.16
2022-11-29T03:00:06.037Z,72.47
2022-11-29T03:02:36.734Z,72.29
2022-11-29T03:05:19.769Z,72.35
2022-11-29T03:08:01.051Z,72.73
2022-11-29T03:10:43.553Z,72.68
2022-11-29T03:13:22.879Z,72.73
2022-11-29T03:15:54.491Z,73.10
2022-11-29T03:18:55.982Z,72.58
2022-11-29T03:21:22.513Z,72.24
2022-11-29T03:23:58.863Z,72.81
2022-11-29T03:26:52.043Z,73.05
2022-11-29T03:29:32.654Z,71.92
2022-11-29T03:32:12.760Z,71.61
2022-11-29T03:34:42.499Z,72.46
2022-11-29T03:37:29.717Z,73.14
2022-11-29T03:40:12.560Z,72.47
2022-11-29T03:43:04.093Z,72.18
2022-11-29T03:45:50.836Z,71.96
2022-11-29T03:48:35.181Z,72.31
2022-11-29T03:51:33.975Z,72.13
2022-11-29T03:54:07.645Z,71.20
2022-11-29T03:56:40.073Z,70.96
2022-11-29T03:59:48.433Z,71.21
2022-11-29T04:02:18.029Z,72.18
2022-11-29T04:05:10.252Z,72.28
2022-11-29T04:08:05.835Z,71.67
2022-11-29T04:10:57.265Z,71.30
2022-11-29T04:13:54.812Z,71.48
2022-11-29T04:16:21.528Z,71.40
2022-11-29T04:19:06.946Z,71.43
2022-11-29T04:21:40.461Z,71.46
2022-11-29T04:24:31.936Z,71.85
2022-11-29T04:27:17.151Z,71.45
2022-11-29T04:30:19.637Z,71.63
2022-11-29T04:33:03.406Z,72.11
2022-11-29T04:35:49.564Z,72.07
2022-11-29T04:39:09.845Z,72.07
2022-11-29T04:42:06.455Z,72.07
2022-11-29T04:45:04.478Z,71.45
2022-11-29T04:47:48.624Z,71.61
2022-11-29T04:50:35.931Z,72.22
2022-11-29T04:53:27.584Z,72.68
2022-11-29T04:56:26.671Z,72.57
2022-11-29T04:59:05.877Z,73.00
2022-11-29T05:01:54.585Z,72.73
2022-11-29T05:04:28.110Z,73.21
2022-11-29T05:07:27.474Z,73.16
2022-11-29T05:10:32.586Z,72.31
2022-11-29T05:13:25.052Z,72.77
2022-11-29T05:16:19.151Z,72.48
2022-11-29T05:18:57.626Z,72.15
2022-11-29T05:21:42.864Z,72.33
2022-11-29T05:24:25.038Z,72.25
2022-11-29T05:27:20.657Z,72.70
2022-11-29T05:30:07.426Z,71.94
2022-11-29T05:32:43.079Z,72.67
2022-11-29T05:35:29.436Z,72.20
2022-11-29T05:38:31.733Z,71.78
2022-11-29T05:41:06.066Z,72.36
2022-11-29T05:43:54.072Z,72.43
2022-11-29T05:46:29.911Z,72.91
2022-11-29T05:49:27.497Z,72.82
2022-11-29T05:52:09.459Z,72.35
2022-11-29T05:54:55.792Z,72.26
2022-11-29T05:57:43.752Z,72.78
2022-11-29T06:00:12.350Z,71.16
2022-11-29T06:02:56.099Z,71.97
2022-11-29T06:05:47.773Z,71.46
2022-11-29T06:08:33.004Z,72.30
2022-11-29T06:11:20.748Z,71.91
2022-11-29T06:13:54.629Z,71.97
2022-11-29T06:16:33.973Z,71.33
2022-11-29T06:19:25.502Z,71.52
2022-11-29T06:22:08.716Z,71.55
2022-11-29T06:24:45.566Z,71.48
2022-11-29T06:27:31.722Z,71.31
2022-11-29T06:30:09.912Z,71.50
2022-11-29T06:33:01.414Z,71.99
2022-11-29T06:36:09.832Z,71.28
2022-11-29T06:38:36.552Z,71.02
2022-11-29T06:41:03.452Z,70.72
2022-11-29T06:43:30.801Z,70.52
2022-11-29T06:46:04.327Z,70.69
2022-11-29T06:48:42.001Z,70.95
2022-11-29T06:51:22.218Z,70.55
2022-11-29T06:54:00.027Z,70.94
2022-11-29T06:56:38.220Z,71.25
2022-11-29T06:59:27.774Z,72.01
2022-11-29T07:02:04.741Z,72.60
2022-11-29T07:04:45.670Z,72.89
2022-11-29T07:07:18.552Z,73.38
2022-11-29T07:09:47.128Z,73.96
2022-11-29T07:12:14.220Z,74.54
2022-11-29T07:14:41.204Z,73.20
2022-11-29T07:17:29.264Z,74.11
2022-11-29T07:20:14.594Z,74.15
2022-11-29T07:22:59.782Z,72.45
2022-11-29T07:25:35.404Z,71.83
2022-11-29T07:28:20.907Z,72.39
2022-11-29T07:30:59.502Z,72.14
2022-11-29T07:33:35.225Z,72.96
2022-11-29T07:36:20.533Z,73.59
2022-11-29T07:38:59.173Z,73.59
2022-11-29T07:41:44.850Z,73.74
2022-11-29T07:44:29.835Z,72.79
2022-11-29T07:46:56.644Z,72.30
2022-11-29T07:49:23.312Z,72.67
2022-11-29T07:51:49.978Z,71.98
2022-11-29T07:54:18.859Z,71.48
2022-11-29T07:56:45.914Z,72.33
2022-11-29T07:59:12.996Z,71.74
2022-11-29T08:01:40.609Z,71.42
2022-11-29T08:04:08.453Z,70.94
2022-11-29T08:06:36.023Z,71.06
2022-11-29T08:09:04.416Z,70.89
2022-11-29T08:11:31.607Z,70.71
2022-11-29T08:13:59.711Z,70.94
2022-11-29T08:16:26.538Z,70.45
2022-11-29T08:18:53.260Z,71.55
2022-11-29T08:21:19.958Z,71.68
2022-11-29T08:23:48.000Z,72.15
2022-11-29T08:26:15.797Z,73.44
2022-11-29T08:28:42.649Z,73.31
2022-11-29T08:31:11.539Z,72.52
2022-11-29T08:33:40.701Z,72.78
2022-11-29T08:36:11.776Z,71.91
2022-11-29T08:38:38.549Z,71.75
2022-11-29T08:41:07.233Z,71.56
2022-11-29T08:43:34.322Z,71.57
2022-11-29T08:46:01.191Z,71.20
2022-11-29T08:48:27.909Z,71.33
2022-11-29T08:50:56.362Z,72.19
2022-11-29T08:53:41.933Z,72.31
2022-11-29T08:56:49.501Z,74.55
2022-11-29T08:58:58.293Z,73.88
2022-11-29T09:01:24.997Z,74.54
2022-11-29T09:04:02.499Z,73.90
2022-11-29T09:06:34.048Z,73.46
2022-11-29T09:09:01.174Z,73.62
2022-11-29T09:11:30.315Z,73.40
2022-11-29T09:14:00.101Z,73.71
2022-11-29T09:16:29.526Z,73.17
2022-11-29T09:18:57.392Z,73.07
2022-11-29T09:21:26.020Z,73.66
2022-11-29T09:23:58.841Z,73.44
2022-11-29T09:26:27.892Z,73.59
2022-11-29T09:28:55.790Z,73.04
2022-11-29T09:31:22.490Z,73.17
2022-11-29T09:33:49.174Z,73.93
2022-11-29T09:36:16.467Z,73.49
2022-11-29T09:38:43.059Z,72.99
2022-11-29T09:41:48.882Z,73.35
2022-11-29T09:44:34.388Z,73.60
2022-11-29T09:47:14.891Z,73.69
2022-11-29T09:50:06.337Z,73.62
2022-11-29T09:53:05.577Z,73.72
2022-11-29T09:55:49.315Z,72.59
2022-11-29T09:58:20.937Z,72.27
2022-11-29T10:00:49.823Z,72.40
2022-11-29T10:03:25.599Z,72.15
2022-11-29T10:05:59.958Z,71.84
2022-11-29T10:08:45.425Z,72.32
2022-11-29T10:11:20.745Z,71.67
2022-11-29T10:13:54.258Z,70.97
2022-11-29T10:16:45.467Z,71.33
2022-11-29T10:19:12.505Z,71.37
2022-11-29T10:21:43.749Z,71.46
2022-11-29T10:24:14.715Z,71.75
2022-11-29T10:26:43.513Z,71.12
2022-11-29T10:29:14.834Z,70.98
2022-11-29T10:31:44.571Z,70.79
2022-11-29T10:34:20.579Z,71.24
2022-11-29T10:36:50.257Z,70.72
2022-11-29T10:39:24.518Z,70.44
2022-11-29T10:41:55.941Z,70.48
2022-11-29T10:44:24.274Z,70.91
2022-11-29T10:46:51.981Z,70.81
2022-11-29T10:49:20.935Z,71.62
2022-11-29T10:51:47.794Z,71.19
2022-11-29T10:54:20.530Z,71.34
2022-11-29T10:56:47.936Z,71.12
2022-11-29T10:59:26.408Z,71.16
2022-11-29T11:01:53.764Z,71.54
2022-11-29T11:04:33.930Z,71.01
2022-11-29T11:07:03.454Z,70.96
2022-11-29T11:09:53.079Z,71.96
2022-11-29T11:12:23.147Z,72.48
2022-11-29T11:14:51.428Z,72.12
2022-11-29T11:17:32.618Z,72.73
2022-11-29T11:20:05.791Z,71.27
2022-11-29T11:22:33.739Z,71.15
2022-11-29T11:25:04.866Z,71.09
2022-11-29T11:27:39.967Z,70.94
2022-11-29T11:30:18.126Z,71.08
2022-11-29T11:33:07.273Z,71.27
2022-11-29T11:35:34.096Z,71.28
2022-11-29T11:38:00.714Z,71.29
2022-11-29T11:40:30.397Z,71.01
2022-11-29T11:42:59.503Z,70.90
2022-11-29T11:45:36.453Z,70.70
2022-11-29T11:48:11.100Z,70.44
2022-11-29T11:50:45.485Z,70.07
2022-11-29T11:53:25.381Z,70.92
2022-11-29T11:56:07.647Z,72.40
2022-11-29T11:58:55.506Z,73.25
2022-11-29T12:01:39.264Z,72.17
2022-11-29T12:04:13.731Z,72.45
2022-11-29T12:06:52.545Z,71.28
2022-11-29T12:09:46.338Z,71.78
2022-11-29T12:12:15.472Z,70.99
2022-11-29T12:15:00.940Z,72.64
2022-11-29T12:17:44.353Z,72.16
2022-11-29T12:20:30.378Z,72.30
2022-11-29T12:23:20.081Z,72.38
2022-11-29T12:26:05.421Z,73.96
2022-11-29T12:28:34.786Z,72.74
2022-11-29T12:31:07.340Z,72.08
2022-11-29T12:33:49.889Z,71.90
2022-11-29T12:36:37.816Z,72.07
2022-11-29T12:39:22.519Z,72.33
2022-11-29T12:42:21.670Z,71.24
2022-11-29T12:45:19.386Z,72.41
2022-11-29T12:48:13.601Z,74.02
2022-11-29T12:50:48.986Z,73.55
2022-11-29T12:53:41.487Z,74.43
2022-11-29T12:56:25.750Z,75.01
2022-11-29T12:59:23.295Z,74.78
2022-11-29T13:02:32.302Z,74.38
2022-11-29T13:05:43.524Z,74.39
2022-11-29T13:08:54.696Z,74.85
2022-11-29T13:11:28.872Z,75.94
2022-11-29T13:14:42.710Z,76.62
2022-11-29T13:17:30.311Z,75.69
2022-11-29T13:20:18.862Z,76.02
2022-11-29T13:22:57.501Z,74.71
2022-11-29T13:25:28.749Z,75.09
2022-11-29T13:28:01.948Z,74.50
2022-11-29T13:30:28.614Z,75.04
2022-11-29T13:33:13.353Z,75.03
2022-11-29T13:35:53.422Z,75.81
2022-11-29T13:38:41.267Z,74.05
2022-11-29T13:41:33.742Z,73.20
2022-11-29T13:44:29.197Z,73.89
2022-11-29T13:47:04.245Z,73.91
2022-11-29T13:49:52.996Z,76.17
2022-11-29T13:52:45.349Z,75.88
2022-11-29T13:55:11.920Z,75.56
2022-11-29T13:58:20.933Z,73.68
2022-11-29T14:00:47.502Z,75.10
2022-11-29T14:03:22.982Z,75.38
2022-11-29T14:06:03.319Z,75.20
2022-11-29T14:09:17.181Z,75.89
2022-11-29T14:11:54.437Z,76.53
2022-11-29T14:14:48.267Z,75.99
2022-11-29T14:17:46.571Z,74.61
2022-11-29T14:20:22.360Z,74.84
2022-11-29T14:23:04.344Z,75.41
2022-11-29T14:28:22.780Z,74.65
2022-11-29T14:30:57.146Z,75.89
2022-11-29T14:33:42.622Z,76.37
2022-11-29T14:36:23.861Z,75.69
2022-11-29T14:39:28.023Z,74.73
2022-11-29T14:42:03.584Z,73.77
2022-11-29T14:44:32.149Z,73.96
2022-11-29T14:47:31.871Z,75.23
2022-11-29T14:50:01.547Z,75.49
2022-11-29T14:52:50.548Z,75.76
2022-11-29T14:55:17.095Z,76.67
2022-11-29T14:57:50.049Z,74.34
2022-11-29T15:00:24.708Z,73.50
2022-11-29T15:03:12.855Z,75.51
2022-11-29T15:05:48.762Z,76.03
2022-11-29T15:08:50.135Z,75.86
2022-11-29T15:11:53.042Z,76.33
2022-11-29T15:14:25.294Z,76.63
2022-11-29T15:17:34.327Z,75.53
2022-11-29T15:20:28.357Z,76.06
2022-11-29T15:22:59.523Z,75.98
2022-11-29T15:25:30.957Z,74.74
2022-11-29T15:28:05.963Z,75.47
2022-11-29T15:30:41.240Z,76.04
2022-11-29T15:33:23.424Z,75.46
2022-11-29T15:35:55.546Z,75.78
2022-11-29T15:38:23.983Z,74.91
2022-11-29T15:40:54.894Z,76.83
2022-11-29T15:43:40.899Z,75.30
2022-11-29T15:46:18.931Z,76.95
2022-11-29T15:48:45.581Z,75.55
2022-11-29T15:51:41.321Z,76.19
2022-11-29T15:54:24.136Z,76.59
2022-11-29T15:56:59.497Z,76.44
2022-11-29T15:59:48.303Z,75.37
2022-11-29T16:02:14.877Z,76.41
2022-11-29T16:04:46.763Z,77.46
2022-11-29T16:07:14.576Z,76.67
2022-11-29T16:09:47.160Z,75.93
2022-11-29T16:12:16.327Z,75.55
2022-11-29T16:14:52.777Z,75.59
2022-11-29T16:17:26.661Z,74.79
2022-11-29T16:20:25.553Z,75.29
2022-11-29T16:23:13.079Z,75.63
2022-11-29T16:25:54.215Z,75.84
2022-11-29T16:28:20.959Z,74.44
2022-11-29T16:30:47.706Z,74.03
2022-11-29T16:33:24.566Z,73.71
2022-11-29T16:35:51.815Z,74.21
2022-11-29T16:38:21.837Z,75.20
2022-11-29T16:41:34.656Z,73.07
2022-11-29T16:44:03.521Z,72.30
2022-11-29T16:46:34.434Z,74.45
2022-11-29T16:49:22.455Z,71.81
2022-11-29T16:51:49.385Z,72.06
2022-11-29T16:54:22.699Z,72.15
2022-11-29T16:56:51.264Z,72.42
2022-11-29T16:59:26.434Z,72.25
2022-11-29T17:01:55.750Z,73.54
2022-11-29T17:04:23.835Z,73.30
2022-11-29T17:06:56.234Z,73.71
2022-11-29T17:09:26.283Z,73.86
2022-11-29T17:11:54.486Z,74.33
2022-11-29T17:14:21.379Z,74.23
2022-11-29T17:16:52.050Z,74.40
2022-11-29T17:19:24.704Z,74.88
2022-11-29T17:21:52.740Z,74.15
2022-11-29T17:24:21.703Z,72.04
2022-11-29T17:26:48.416Z,73.24
2022-11-29T17:29:16.330Z,73.84
2022-11-29T17:31:44.643Z,74.35
2022-11-29T17:34:11.894Z,73.92
2022-11-29T17:36:38.856Z,72.13
2022-11-29T17:39:05.576Z,72.59
2022-11-29T17:41:32.983Z,72.67
2022-11-29T17:44:00.116Z,71.08
2022-11-29T17:46:32.427Z,74.08
2022-11-29T17:49:00.139Z,73.89
2022-11-29T17:54:14.177Z,72.76
2022-11-29T17:56:40.779Z,72.56
2022-11-29T17:59:07.407Z,72.29
2022-11-29T18:01:35.839Z,71.50
2022-11-29T18:04:05.516Z,71.89
2022-11-29T18:06:37.841Z,73.17
2022-11-29T18:09:06.331Z,73.25
2022-11-29T18:11:49.859Z,74.03
2022-11-29T18:14:19.697Z,73.05
2022-11-29T18:16:46.610Z,73.56
2022-11-29T18:19:15.626Z,73.01
2022-11-29T18:21:42.272Z,73.12
2022-11-29T18:24:09.599Z,74.15
2022-11-29T18:26:37.421Z,74.13
2022-11-29T18:29:05.680Z,74.26
2022-11-29T18:31:35.838Z,75.14
2022-11-29T18:34:06.998Z,74.24
2022-11-29T18:36:37.463Z,72.46
2022-11-29T18:39:09.448Z,73.03
2022-11-29T18:41:36.658Z,73.78
2022-11-29T18:44:06.456Z,73.73
2022-11-29T18:46:35.672Z,73.77
2022-11-29T18:49:06.495Z,74.15
2022-11-29T18:51:34.231Z,74.72
2022-11-29T18:54:01.199Z,74.16
2022-11-29T18:56:30.067Z,73.80
2022-11-29T18:59:23.081Z,74.12
2022-11-29T19:01:49.863Z,76.43
2022-11-29T19:04:19.217Z,75.92
2022-11-29T19:06:46.263Z,75.70
2022-11-29T19:09:16.184Z,74.73
2022-11-29T19:11:42.815Z,76.03
2022-11-29T19:14:11.954Z,76.39
2022-11-29T19:16:40.680Z,77.20
2022-11-29T19:19:07.366Z,76.19
2022-11-29T19:21:37.101Z,76.63
2022-11-29T19:24:06.791Z,74.78
2022-11-29T19:26:34.529Z,73.82
2022-11-29T19:29:01.693Z,76.32
2022-11-29T19:31:28.902Z,76.26
2022-11-29T19:33:56.204Z,75.99
2022-11-29T19:36:25.109Z,76.72
2022-11-29T19:38:54.156Z,75.77
2022-11-29T19:41:29.963Z,76.64
2022-11-29T19:43:58.353Z,76.07
2022-11-29T19:46:30.123Z,75.45
2022-11-29T19:48:58.622Z,75.66
2022-11-29T19:51:27.201Z,75.64
2022-11-29T19:53:59.640Z,75.44
2022-11-29T19:56:27.174Z,74.12
2022-11-29T19:58:54.282Z,73.61
2022-11-29T20:01:25.097Z,74.43
2022-11-29T20:03:52.501Z,75.77
2022-11-29T20:06:19.476Z,75.78
2022-11-29T20:08:47.024Z,74.45
2022-11-29T20:11:17.655Z,75.08
2022-11-29T20:13:52.473Z,74.43
2022-11-29T20:16:21.995Z,74.50
2022-11-29T20:18:51.135Z,75.86
2022-11-29T20:21:31.474Z,75.61
2022-11-29T20:24:04.232Z,77.23
2022-11-29T20:26:33.164Z,78.40
2022-11-29T20:29:00.340Z,77.89
2022-11-29T20:31:27.977Z,76.09
2022-11-29T20:33:57.280Z,75.71
2022-11-29T20:36:32.925Z,76.23
2022-11-29T20:39:36.701Z,77.19
2022-11-29T20:42:41.423Z,75.46
2022-11-29T20:45:12.184Z,74.87
2022-11-29T20:47:49.454Z,76.66
2022-11-29T20:50:23.766Z,74.13
2022-11-29T20:53:03.486Z,73.11
2022-11-29T20:55:30.525Z,74.34
2022-11-29T20:57:57.437Z,74.52
2022-11-29T21:00:24.245Z,74.48
2022-11-29T21:02:50.985Z,74.50
2022-11-29T21:05:18.855Z,73.83
2022-11-29T21:07:46.678Z,73.18
2022-11-29T21:10:15.523Z,74.17
2022-11-29T21:12:45.534Z,73.35
2022-11-29T21:15:14.300Z,74.59
2022-11-29T21:17:42.494Z,74.35
2022-11-29T21:20:18.126Z,73.69
2022-11-29T21:23:00.707Z,75.47
2022-11-29T21:25:27.419Z,75.32
2022-11-29T21:27:55.236Z,74.05
2022-11-29T21:30:24.121Z,73.21
2022-11-29T21:32:51.355Z,72.02
2022-11-29T21:35:18.183Z,72.54
2022-11-29T21:37:45.678Z,72.14
2022-11-29T21:40:13.433Z,71.91
2022-11-29T21:42:40.245Z,72.60
2022-11-29T21:45:14.621Z,72.50
2022-11-29T21:47:42.039Z,72.62
2022-11-29T21:50:09.077Z,72.38
2022-11-29T21:52:35.694Z,74.03
2022-11-29T21:55:02.458Z,75.56
2022-11-29T21:57:29.086Z,74.51
2022-11-29T21:59:55.668Z,73.27
2022-11-29T22:02:22.356Z,73.36
2022-11-29T22:04:49.201Z,73.76
2022-11-29T22:07:15.942Z,73.24
2022-11-29T22:09:42.534Z,72.53
2022-11-29T22:12:31.963Z,72.39
2022-11-29T22:14:56.186Z,73.20
2022-11-29T22:17:22.773Z,75.41
2022-11-29T22:19:49.389Z,75.62
2022-11-29T22:22:16.220Z,75.00
2022-11-29T22:24:42.856Z,73.73
2022-11-29T22:27:09.442Z,75.38
2022-11-29T22:29:36.335Z,74.83
2022-11-29T22:32:03.165Z,75.33
2022-11-29T22:34:29.806Z,75.00
2022-11-29T22:36:56.572Z,75.33
2022-11-29T22:39:23.944Z,74.21
2022-11-29T22:41:54.242Z,73.23
2022-11-29T22:44:22.524Z,73.54
2022-11-29T22:46:49.359Z,74.29
2022-11-29T22:49:15.997Z,74.09
2022-11-29T22:51:42.739Z,74.23
2022-11-29T22:54:11.649Z,75.26
2022-11-29T22:56:41.318Z,74.10
2022-11-29T22:59:09.046Z,74.83
2022-11-29T23:01:38.168Z,74.09
2022-11-29T23:04:07.196Z,73.25
2022-11-29T23:06:40.148Z,73.02
2022-11-29T23:09:11.854Z,73.87
2022-11-29T23:11:38.831Z,74.02
2022-11-29T23:14:05.527Z,72.64
2022-11-29T23:16:33.084Z,72.60
2022-11-29T23:19:01.111Z,72.20
2022-11-29T23:21:29.141Z,72.14
2022-11-29T23:23:56.998Z,71.81
2022-11-29T23:26:31.825Z,72.55
2022-11-29T23:28:58.485Z,72.61
2022-11-29T23:31:25.334Z,72.88
2022-11-29T23:33:52.089Z,73.34
2022-11-29T23:36:20.385Z,72.46
2022-11-29T23:38:47.594Z,73.38
2022-11-29T23:41:14.816Z,73.96
2022-11-29T23:43:42.372Z,73.77
2022-11-29T23:46:20.589Z,72.57
2022-11-29T23:48:48.480Z,73.54
2022-11-29T23:51:15.739Z,74.77
2022-11-29T23:53:42.911Z,75.69
2022-11-29T23:56:17.297Z,75.96
2022-11-29T23:58:44.863Z,74.06
